Weather at Lakeland Linder International Airport

Public forecast

Using degrees Fahrenheit for public forecast. Weather courtesy of forecast.io.

Current aviation weather report (METAR) for Lakeland Linder International Airport

2022/11/27 01:35 (retrieved 16 minutes ago)

KLAL 270135Z AUTO 00000KT 10SM BKN032 BKN042 BKN070 23/21 A3005 RMK AO2 T02330207

Closest aviation forecast (TAF) to Lakeland Linder International Airport

Forecast is more than 12 hours old.

Closest forecast is Naval Station Mayport (Admiral David L. Mcdonald Field), 147.5 nm (273.3 km) NNE.

2022/11/25 22:18 Ammendment (retrieved 1 day ago)

TAF AMD KNRB 2522/2615 04005KT 4800 BR BKN003 BKN020 OVC050 QNH2994INS TEMPO 2521/2600 0800 FG OVC002 BECMG 2601/2603 02010KT 9999 VCSH SCT020 BKN040 OVC070 QNH3000INS LAST NO AMDS AFT 2523 NEXT 2807 AUTOMATED SENSOR METWATCH 2523 TIL 2811 T22/2521Z T21/2611Z AMD 2105 FN20021